1898 NOT_NAMED (1898216N18131)


IBTrACS version v04r00. Visit IBTrACS website for data access.
Please direct all questions to the IBTrACS Q and A forum

Storm track - Intensity - Wind Radii - Intensity Data - Source Data - All data

Summary Information

Storm ID 1898216N18131
Start Aug 3 16Z
Landfall Aug 8 03Z, Aug 8 09Z
End Aug 9 04Z
ATCF IDs
Track status Best track data.

Storm track plot

Map of storm track

Intensity plots

No Intensity information for this storm


Radial wind information

No radial wind information for this storm


Position and Intensity Table

BASIN ISO_TIME_________ NATURE LAT LON
degrees north degrees east
WP 1898-08-03 16:00:00 NR 18.30 130.70
WP 18:00:00 NR 18.73 129.88
WP 21:00:00 NR 19.35 128.69
WP 1898-08-04 00:00:00 NR 19.93 127.64
WP 03:00:00 NR 20.44 126.81
WP 04:00:00 NR 20.60 126.60
WP 06:00:00 NR 20.89 126.29
WP 09:00:00 NR 21.26 126.04
WP 12:00:00 NR 21.59 125.95
WP 15:00:00 NR 21.90 125.92
WP 16:00:00 NR 22.00 125.90
WP 18:00:00 NR 22.22 125.77
WP 21:00:00 NR 22.53 125.58
WP 1898-08-05 00:00:00 NR 22.83 125.38
WP 03:00:00 NR 23.11 125.17
WP 04:00:00 NR 23.20 125.10
WP 06:00:00 NR 23.38 124.97
WP 09:00:00 NR 23.63 124.77
WP 12:00:00 NR 23.87 124.54
WP 15:00:00 NR 24.12 124.29
WP 16:00:00 NR 24.20 124.20
WP 18:00:00 NR 24.40 123.99
WP 21:00:00 NR 24.70 123.63
WP 1898-08-06 00:00:00 NR 24.99 123.26
WP 03:00:00 NR 25.23 122.91
WP 04:00:00 NR 25.30 122.80
WP 06:00:00 NR 25.40 122.62
WP 09:00:00 NR 25.49 122.36
WP 12:00:00 NR 25.55 122.13
WP 15:00:00 NR 25.59 121.88
WP 16:00:00 NR 25.60 121.80
WP 18:00:00 NR 25.65 121.59
WP 21:00:00 NR 25.71 121.26
WP 1898-08-07 00:00:00 NR 25.76 120.95
WP 03:00:00 NR 25.79 120.68
WP 04:00:00 NR 25.80 120.60
WP 06:00:00 NR 25.79 120.49
WP 09:00:00 NR 25.76 120.38
WP 12:00:00 NR 25.72 120.30
WP 15:00:00 NR 25.70 120.23
WP 16:00:00 NR 25.70 120.20
WP 18:00:00 NR 25.70 120.11
WP 21:00:00 NR 25.72 119.98
WP 1898-08-08 00:00:00 NR 25.79 119.85
WP 03:00:00 NR 25.93 119.73
WP 04:00:00 NR 26.00 119.70
WP 06:00:00 NR 26.16 119.67
WP 09:00:00 NR 26.46 119.64
WP 12:00:00 NR 26.83 119.60
WP 15:00:00 NR 27.25 119.54
WP 16:00:00 NR 27.40 119.50
WP 18:00:00 NR 27.70 119.40
WP 21:00:00 NR 28.17 119.21
WP 1898-08-09 00:00:00 NR 28.65 118.96
WP 03:00:00 NR 29.14 118.69
WP 04:00:00 NR 29.30 118.60

Source Information

Agency Information
USA
TOKYO
CMA
HKO
NEWDELHI
REUNION
BOM
NADI
WELLINGTON
DS824
TD9636 cons_worldwide_trop_cyclone_18710101-19891231-003:Line=1811
TD9635
NEUMANN
MLC

All available IBTrACS Data

SEASON BASIN SUBBASIN ISO_TIME_________ NATURE LAT LON DIST2LAND LANDFALL IFLAG USA SSHS TD9636 LAT TD9636 LON TD9636 STAGE STORM SPEED STORM DIR
Year degrees north degrees east km km 1 degrees north degrees east kts degrees
1898 WP MM 1898-08-03 16:00:00 NR 18.30 130.70 833 795 __________O___ -1 18.30 130.70 7 27 299
1898 WP MM 18:00:00 NR 18.73 129.88 795 680 __________P___ -1 18.73 129.88 7 26 299
1898 WP MM 21:00:00 NR 19.35 128.69 680 581 __________P___ -1 19.35 128.69 7 24 300
1898 WP MM 1898-08-04 00:00:00 NR 19.93 127.64 581 522 __________P___ -1 19.93 127.64 7 21 302
1898 WP MM 03:00:00 NR 20.44 126.81 522 513 __________P___ -1 20.44 126.81 7 18 305
1898 WP MM 04:00:00 NR 20.60 126.60 513 497 __________O___ -1 20.60 126.60 7 13 312
1898 WP MM 06:00:00 NR 20.89 126.29 503 494 __________P___ -1 20.89 126.29 7 10 322
1898 WP MM 09:00:00 NR 21.26 126.04 504 501 __________P___ -1 21.26 126.04 7 8 336
1898 WP MM 12:00:00 NR 21.59 125.95 501 481 __________P___ -1 21.59 125.95 7 7 350
1898 WP MM 15:00:00 NR 21.90 125.92 481 478 __________P___ -1 21.90 125.92 7 6 352
1898 WP MM 16:00:00 NR 22.00 125.90 478 462 __________O___ -1 22.00 125.90 3 7 337
1898 WP MM 18:00:00 NR 22.22 125.77 462 435 __________P___ -1 22.22 125.77 3 7 331
1898 WP MM 21:00:00 NR 22.53 125.58 435 403 __________P___ -1 22.53 125.58 3 7 329
1898 WP MM 1898-08-05 00:00:00 NR 22.83 125.38 403 370 __________P___ -1 22.83 125.38 3 7 327
1898 WP MM 03:00:00 NR 23.11 125.17 370 356 __________P___ -1 23.11 125.17 3 7 326
1898 WP MM 04:00:00 NR 23.20 125.10 356 337 __________O___ -1 23.20 125.10 4 7 325
1898 WP MM 06:00:00 NR 23.38 124.97 337 311 __________P___ -1 23.38 124.97 4 6 324
1898 WP MM 09:00:00 NR 23.63 124.77 311 271 __________P___ -1 23.63 124.77 4 6 322
1898 WP MM 12:00:00 NR 23.87 124.54 271 247 __________P___ -1 23.87 124.54 4 7 319
1898 WP MM 15:00:00 NR 24.12 124.29 247 235 __________P___ -1 24.12 124.29 4 7 316
1898 WP MM 16:00:00 NR 24.20 124.20 235 212 __________O___ -1 24.20 124.20 4 8 315
1898 WP MM 18:00:00 NR 24.40 123.99 212 164 __________P___ -1 24.40 123.99 4 9 314
1898 WP MM 21:00:00 NR 24.70 123.63 164 130 __________P___ -1 24.70 123.63 4 9 312
1898 WP MM 1898-08-06 00:00:00 NR 24.99 123.26 130 93 __________P___ -1 24.99 123.26 4 8 309
1898 WP MM 03:00:00 NR 25.23 122.91 93 87 __________P___ -1 25.23 122.91 4 8 306
1898 WP MM 04:00:00 NR 25.30 122.80 87 75 __________O___ -1 25.30 122.80 4 6 302
1898 WP MM 06:00:00 NR 25.40 122.62 75 67 __________P___ -1 25.40 122.62 4 5 296
1898 WP MM 09:00:00 NR 25.49 122.36 68 56 __________P___ -1 25.49 122.36 4 5 289
1898 WP MM 12:00:00 NR 25.55 122.13 67 53 __________P___ -1 25.55 122.13 4 4 282
1898 WP MM 15:00:00 NR 25.59 121.88 53 48 __________P___ -1 25.59 121.88 4 4 279
1898 WP MM 16:00:00 NR 25.60 121.80 48 44 __________O___ -1 25.60 121.80 4 5 283
1898 WP MM 18:00:00 NR 25.65 121.59 44 55 __________P___ -1 25.65 121.59 4 6 283
1898 WP MM 21:00:00 NR 25.71 121.26 56 59 __________P___ -1 25.71 121.26 4 6 281
1898 WP MM 1898-08-07 00:00:00 NR 25.76 120.95 83 83 __________P___ -1 25.76 120.95 4 5 279
1898 WP MM 03:00:00 NR 25.79 120.68 92 90 __________P___ -1 25.79 120.68 4 5 277
1898 WP MM 04:00:00 NR 25.80 120.60 90 80 __________O___ -1 25.80 120.60 4 3 268
1898 WP MM 06:00:00 NR 25.79 120.49 80 70 __________P___ -1 25.79 120.49 4 2 257
1898 WP MM 09:00:00 NR 25.76 120.38 70 64 __________P___ -1 25.76 120.38 4 2 247
1898 WP MM 12:00:00 NR 25.72 120.30 64 54 __________P___ -1 25.72 120.30 4 1 247
1898 WP MM 15:00:00 NR 25.70 120.23 54 54 __________P___ -1 25.70 120.23 4 1 258
1898 WP MM 16:00:00 NR 25.70 120.20 54 45 __________O___ -1 25.70 120.20 4 2 270
1898 WP MM 18:00:00 NR 25.70 120.11 45 37 __________P___ -1 25.70 120.11 4 2 276
1898 WP MM 21:00:00 NR 25.72 119.98 37 14 __________P___ -1 25.72 119.98 4 3 291
1898 WP MM 1898-08-08 00:00:00 NR 25.79 119.85 14 0 __________P___ -1 25.79 119.85 4 3 314
1898 WP MM 03:00:00 NR 25.93 119.73 0 0 __________P___ -1 25.93 119.73 4 4 328
1898 WP MM 04:00:00 NR 26.00 119.70 0 0 __________O___ -1 26.00 119.70 4 5 346
1898 WP MM 06:00:00 NR 26.16 119.67 9 0 __________P___ -1 26.16 119.67 4 6 352
1898 WP MM 09:00:00 NR 26.46 119.64 0 0 __________P___ -1 26.46 119.64 4 7 356
1898 WP MM 12:00:00 NR 26.83 119.60 0 0 __________P___ -1 26.83 119.60 4 8 354
1898 WP MM 15:00:00 NR 27.25 119.54 0 0 __________P___ -1 27.25 119.54 4 9 351
1898 WP MM 16:00:00 NR 27.40 119.50 0 0 __________O___ -1 27.40 119.50 4 9 345
1898 WP MM 18:00:00 NR 27.70 119.40 0 0 __________P___ -1 27.70 119.40 4 10 341
1898 WP MM 21:00:00 NR 28.17 119.21 0 0 __________P___ -1 28.17 119.21 4 10 338
1898 WP MM 1898-08-09 00:00:00 NR 28.65 118.96 0 0 __________P___ -1 28.65 118.96 4 11 335
1898 WP MM 03:00:00 NR 29.14 118.69 0 0 __________P___ -1 29.14 118.69 4 11 334
1898 WP MM 04:00:00 NR 29.30 118.60 0 __________O___ -1 29.30 118.60 4 11 334